sensor_id;sensor_type;location;lat;lon;timestamp;P1;durP1;ratioP1;P2;durP2;ratioP2
60257;SDS011;46115;44.484;11.314;2023-07-13T00:03:50;19.65;;;6.38;;
60257;SDS011;46115;44.484;11.314;2023-07-13T00:07:52;18.48;;;6.35;;
60257;SDS011;46115;44.484;11.314;2023-07-13T00:11:56;17.40;;;7.10;;
60257;SDS011;46115;44.484;11.314;2023-07-13T00:16:00;23.13;;;7.47;;
60257;SDS011;46115;44.484;11.314;2023-07-13T00:20:03;20.92;;;7.20;;
60257;SDS011;46115;44.484;11.314;2023-07-13T00:24:08;18.38;;;7.00;;
60257;SDS011;46115;44.484;11.314;2023-07-13T00:28:14;19.77;;;7.90;;
60257;SDS011;46115;44.484;11.314;2023-07-13T00:32:18;20.10;;;7.03;;
60257;SDS011;46115;44.484;11.314;2023-07-13T00:36:21;20.05;;;6.68;;
60257;SDS011;46115;44.484;11.314;2023-07-13T00:40:24;27.83;;;7.60;;
60257;SDS011;46115;44.484;11.314;2023-07-13T00:44:26;21.08;;;7.05;;
60257;SDS011;46115;44.484;11.314;2023-07-13T00:48:32;18.30;;;6.30;;
60257;SDS011;46115;44.484;11.314;2023-07-13T00:52:38;15.57;;;6.97;;
60257;SDS011;46115;44.484;11.314;2023-07-13T00:56:43;20.25;;;7.07;;
60257;SDS011;46115;44.484;11.314;2023-07-13T01:00:48;17.67;;;6.85;;
60257;SDS011;46115;44.484;11.314;2023-07-13T01:04:53;21.05;;;6.68;;
60257;SDS011;46115;44.484;11.314;2023-07-13T01:08:56;17.08;;;6.45;;
60257;SDS011;46115;44.484;11.314;2023-07-13T01:13:01;16.42;;;5.95;;
60257;SDS011;46115;44.484;11.314;2023-07-13T01:17:04;20.00;;;7.30;;
60257;SDS011;46115;44.484;11.314;2023-07-13T01:21:08;15.43;;;6.85;;
60257;SDS011;46115;44.484;11.314;2023-07-13T01:25:11;13.88;;;7.40;;
60257;SDS011;46115;44.484;11.314;2023-07-13T01:29:13;16.65;;;6.80;;
60257;SDS011;46115;44.484;11.314;2023-07-13T01:33:17;18.40;;;7.25;;
60257;SDS011;46115;44.484;11.314;2023-07-13T01:37:21;15.32;;;6.82;;
60257;SDS011;46115;44.484;11.314;2023-07-13T01:41:26;18.65;;;8.38;;
60257;SDS011;46115;44.484;11.314;2023-07-13T01:45:28;13.93;;;6.90;;
60257;SDS011;46115;44.484;11.314;2023-07-13T01:49:31;19.45;;;7.00;;
60257;SDS011;46115;44.484;11.314;2023-07-13T01:53:35;15.43;;;7.82;;
60257;SDS011;46115;44.484;11.314;2023-07-13T01:57:37;13.30;;;6.57;;
60257;SDS011;46115;44.484;11.314;2023-07-13T02:01:40;16.15;;;7.07;;
60257;SDS011;46115;44.484;11.314;2023-07-13T02:05:42;17.73;;;6.40;;
60257;SDS011;46115;44.484;11.314;2023-07-13T02:09:46;15.38;;;5.70;;
60257;SDS011;46115;44.484;11.314;2023-07-13T02:13:48;12.93;;;5.30;;
60257;SDS011;46115;44.484;11.314;2023-07-13T02:17:51;12.77;;;5.47;;
60257;SDS011;46115;44.484;11.314;2023-07-13T02:21:53;11.80;;;5.07;;
60257;SDS011;46115;44.484;11.314;2023-07-13T02:25:57;14.00;;;5.10;;
60257;SDS011;46115;44.484;11.314;2023-07-13T02:30:02;13.25;;;5.25;;
60257;SDS011;46115;44.484;11.314;2023-07-13T02:34:05;13.23;;;5.13;;
60257;SDS011;46115;44.484;11.314;2023-07-13T02:38:07;11.75;;;5.20;;
60257;SDS011;46115;44.484;11.314;2023-07-13T02:42:11;12.25;;;5.18;;
60257;SDS011;46115;44.484;11.314;2023-07-13T02:46:14;13.27;;;5.90;;
60257;SDS011;46115;44.484;11.314;2023-07-13T02:50:16;17.13;;;6.22;;
60257;SDS011;46115;44.484;11.314;2023-07-13T02:54:19;17.30;;;6.63;;
60257;SDS011;46115;44.484;11.314;2023-07-13T02:58:22;16.63;;;6.75;;
60257;SDS011;46115;44.484;11.314;2023-07-13T03:02:26;18.52;;;6.95;;
60257;SDS011;46115;44.484;11.314;2023-07-13T03:06:30;19.38;;;6.78;;
60257;SDS011;46115;44.484;11.314;2023-07-13T03:10:34;15.05;;;6.97;;
60257;SDS011;46115;44.484;11.314;2023-07-13T03:14:39;11.32;;;6.60;;
60257;SDS011;46115;44.484;11.314;2023-07-13T03:18:42;13.20;;;5.90;;
60257;SDS011;46115;44.484;11.314;2023-07-13T03:22:47;14.27;;;6.65;;
60257;SDS011;46115;44.484;11.314;2023-07-13T03:26:51;11.40;;;6.22;;
60257;SDS011;46115;44.484;11.314;2023-07-13T03:31:00;13.90;;;6.20;;
60257;SDS011;46115;44.484;11.314;2023-07-13T03:35:05;13.00;;;5.38;;
60257;SDS011;46115;44.484;11.314;2023-07-13T03:39:08;13.70;;;5.32;;
60257;SDS011;46115;44.484;11.314;2023-07-13T03:43:23;11.63;;;4.93;;
60257;SDS011;46115;44.484;11.314;2023-07-13T03:47:28;14.13;;;5.07;;
60257;SDS011;46115;44.484;11.314;2023-07-13T03:51:31;10.23;;;4.60;;
60257;SDS011;46115;44.484;11.314;2023-07-13T03:55:35;10.38;;;4.60;;
60257;SDS011;46115;44.484;11.314;2023-07-13T03:59:38;10.45;;;4.90;;
60257;SDS011;46115;44.484;11.314;2023-07-13T04:03:44;10.55;;;5.07;;
60257;SDS011;46115;44.484;11.314;2023-07-13T04:07:47;17.50;;;5.00;;
60257;SDS011;46115;44.484;11.314;2023-07-13T04:11:50;10.88;;;4.55;;
60257;SDS011;46115;44.484;11.314;2023-07-13T04:15:52;11.38;;;4.68;;
60257;SDS011;46115;44.484;11.314;2023-07-13T04:19:57;14.30;;;4.68;;
60257;SDS011;46115;44.484;11.314;2023-07-13T04:23:59;13.93;;;4.80;;
60257;SDS011;46115;44.484;11.314;2023-07-13T04:28:02;8.50;;;4.40;;
60257;SDS011;46115;44.484;11.314;2023-07-13T04:32:06;10.85;;;4.50;;
60257;SDS011;46115;44.484;11.314;2023-07-13T04:36:10;10.52;;;4.88;;
60257;SDS011;46115;44.484;11.314;2023-07-13T04:40:13;10.95;;;4.88;;
60257;SDS011;46115;44.484;11.314;2023-07-13T04:44:15;11.65;;;4.50;;
60257;SDS011;46115;44.484;11.314;2023-07-13T04:48:17;12.63;;;4.97;;
60257;SDS011;46115;44.484;11.314;2023-07-13T04:52:21;9.05;;;4.45;;
60257;SDS011;46115;44.484;11.314;2023-07-13T04:56:24;11.45;;;4.90;;
60257;SDS011;46115;44.484;11.314;2023-07-13T05:00:26;9.20;;;4.60;;
60257;SDS011;46115;44.484;11.314;2023-07-13T05:04:29;14.80;;;5.00;;
60257;SDS011;46115;44.484;11.314;2023-07-13T05:08:33;11.65;;;4.70;;
60257;SDS011;46115;44.484;11.314;2023-07-13T05:12:35;14.13;;;4.70;;
60257;SDS011;46115;44.484;11.314;2023-07-13T05:16:38;10.05;;;4.40;;
60257;SDS011;46115;44.484;11.314;2023-07-13T05:20:41;9.50;;;4.43;;
60257;SDS011;46115;44.484;11.314;2023-07-13T05:24:45;10.40;;;4.53;;
60257;SDS011;46115;44.484;11.314;2023-07-13T05:28:47;12.07;;;4.82;;
60257;SDS011;46115;44.484;11.314;2023-07-13T05:32:50;10.05;;;5.18;;
60257;SDS011;46115;44.484;11.314;2023-07-13T05:36:52;13.40;;;5.00;;
60257;SDS011;46115;44.484;11.314;2023-07-13T05:40:56;13.23;;;4.97;;
60257;SDS011;46115;44.484;11.314;2023-07-13T05:44:59;12.57;;;5.00;;
60257;SDS011;46115;44.484;11.314;2023-07-13T05:49:02;11.18;;;4.85;;
60257;SDS011;46115;44.484;11.314;2023-07-13T05:53:05;11.35;;;4.57;;
60257;SDS011;46115;44.484;11.314;2023-07-13T05:57:09;12.07;;;4.82;;
60257;SDS011;46115;44.484;11.314;2023-07-13T06:01:12;15.05;;;5.28;;
60257;SDS011;46115;44.484;11.314;2023-07-13T06:05:15;10.68;;;4.85;;
60257;SDS011;46115;44.484;11.314;2023-07-13T06:09:18;11.93;;;4.65;;
60257;SDS011;46115;44.484;11.314;2023-07-13T06:13:22;9.35;;;4.43;;
60257;SDS011;46115;44.484;11.314;2023-07-13T06:17:24;16.67;;;5.00;;
60257;SDS011;46115;44.484;11.314;2023-07-13T06:21:27;12.57;;;4.20;;
60257;SDS011;46115;44.484;11.314;2023-07-13T06:25:29;7.72;;;3.90;;
60257;SDS011;46115;44.484;11.314;2023-07-13T06:29:33;12.23;;;4.35;;
60257;SDS011;46115;44.484;11.314;2023-07-13T06:33:36;16.88;;;4.80;;
60257;SDS011;46115;44.484;11.314;2023-07-13T06:37:39;13.50;;;4.00;;
60257;SDS011;46115;44.484;11.314;2023-07-13T06:41:41;10.73;;;4.20;;
60257;SDS011;46115;44.484;11.314;2023-07-13T06:45:49;15.05;;;4.50;;
60257;SDS011;46115;44.484;11.314;2023-07-13T06:49:52;12.02;;;4.15;;
60257;SDS011;46115;44.484;11.314;2023-07-13T06:53:55;11.77;;;3.63;;
60257;SDS011;46115;44.484;11.314;2023-07-13T06:57:57;14.60;;;3.95;;
60257;SDS011;46115;44.484;11.314;2023-07-13T07:02:01;10.65;;;3.45;;
60257;SDS011;46115;44.484;11.314;2023-07-13T07:06:07;11.60;;;3.10;;
60257;SDS011;46115;44.484;11.314;2023-07-13T07:10:15;10.63;;;2.95;;
60257;SDS011;46115;44.484;11.314;2023-07-13T07:14:18;12.52;;;3.33;;
60257;SDS011;46115;44.484;11.314;2023-07-13T07:18:21;13.85;;;3.20;;
60257;SDS011;46115;44.484;11.314;2023-07-13T07:22:24;6.95;;;3.28;;
60257;SDS011;46115;44.484;11.314;2023-07-13T07:26:28;13.73;;;2.90;;
60257;SDS011;46115;44.484;11.314;2023-07-13T07:30:30;8.43;;;2.85;;
60257;SDS011;46115;44.484;11.314;2023-07-13T07:34:34;9.73;;;2.83;;
60257;SDS011;46115;44.484;11.314;2023-07-13T07:38:36;12.50;;;2.92;;
60257;SDS011;46115;44.484;11.314;2023-07-13T07:42:39;8.50;;;2.75;;
60257;SDS011;46115;44.484;11.314;2023-07-13T07:46:41;10.38;;;3.40;;
60257;SDS011;46115;44.484;11.314;2023-07-13T07:50:45;7.78;;;3.17;;
60257;SDS011;46115;44.484;11.314;2023-07-13T07:54:48;9.57;;;3.40;;
60257;SDS011;46115;44.484;11.314;2023-07-13T07:58:50;10.05;;;3.08;;
60257;SDS011;46115;44.484;11.314;2023-07-13T08:02:53;8.35;;;3.40;;
60257;SDS011;46115;44.484;11.314;2023-07-13T08:06:57;9.38;;;2.83;;
60257;SDS011;46115;44.484;11.314;2023-07-13T08:11:01;12.23;;;3.17;;
60257;SDS011;46115;44.484;11.314;2023-07-13T08:15:05;10.90;;;3.28;;
60257;SDS011;46115;44.484;11.314;2023-07-13T08:19:11;11.65;;;3.03;;
60257;SDS011;46115;44.484;11.314;2023-07-13T08:23:15;10.73;;;3.40;;
60257;SDS011;46115;44.484;11.314;2023-07-13T08:27:18;12.88;;;3.60;;
60257;SDS011;46115;44.484;11.314;2023-07-13T08:31:20;8.48;;;3.63;;
60257;SDS011;46115;44.484;11.314;2023-07-13T08:35:23;11.60;;;4.00;;
60257;SDS011;46115;44.484;11.314;2023-07-13T08:39:28;13.20;;;3.78;;
60257;SDS011;46115;44.484;11.314;2023-07-13T08:43:33;12.13;;;3.88;;
60257;SDS011;46115;44.484;11.314;2023-07-13T08:47:38;16.60;;;4.00;;
60257;SDS011;46115;44.484;11.314;2023-07-13T08:51:45;11.13;;;3.95;;
60257;SDS011;46115;44.484;11.314;2023-07-13T08:55:54;10.57;;;3.60;;
60257;SDS011;46115;44.484;11.314;2023-07-13T09:00:00;11.40;;;4.18;;
60257;SDS011;46115;44.484;11.314;2023-07-13T09:04:07;16.02;;;4.40;;
60257;SDS011;46115;44.484;11.314;2023-07-13T09:08:18;9.95;;;4.13;;
60257;SDS011;46115;44.484;11.314;2023-07-13T09:12:35;12.45;;;3.90;;
60257;SDS011;46115;44.484;11.314;2023-07-13T09:16:52;12.30;;;4.40;;
60257;SDS011;46115;44.484;11.314;2023-07-13T09:20:57;10.48;;;4.30;;
60257;SDS011;46115;44.484;11.314;2023-07-13T09:25:05;13.13;;;4.28;;
60257;SDS011;46115;44.484;11.314;2023-07-13T09:29:23;14.95;;;4.20;;
60257;SDS011;46115;44.484;11.314;2023-07-13T09:33:30;15.05;;;4.32;;
60257;SDS011;46115;44.484;11.314;2023-07-13T09:37:33;21.75;;;5.85;;
60257;SDS011;46115;44.484;11.314;2023-07-13T09:41:38;14.80;;;5.70;;
60257;SDS011;46115;44.484;11.314;2023-07-13T09:45:49;15.38;;;5.90;;
60257;SDS011;46115;44.484;11.314;2023-07-13T09:49:55;12.35;;;5.85;;
60257;SDS011;46115;44.484;11.314;2023-07-13T09:53:59;13.95;;;6.05;;
60257;SDS011;46115;44.484;11.314;2023-07-13T09:58:03;16.88;;;7.40;;
60257;SDS011;46115;44.484;11.314;2023-07-13T10:06:36;17.73;;;7.45;;
60257;SDS011;46115;44.484;11.314;2023-07-13T10:10:39;13.18;;;7.05;;
60257;SDS011;46115;44.484;11.314;2023-07-13T10:14:42;11.88;;;5.88;;
60257;SDS011;46115;44.484;11.314;2023-07-13T10:18:45;7.20;;;4.30;;
60257;SDS011;46115;44.484;11.314;2023-07-13T10:22:52;7.40;;;4.03;;
60257;SDS011;46115;44.484;11.314;2023-07-13T10:27:01;9.20;;;3.80;;
60257;SDS011;46115;44.484;11.314;2023-07-13T10:31:13;5.85;;;2.50;;
60257;SDS011;46115;44.484;11.314;2023-07-13T10:35:18;7.43;;;2.03;;
60257;SDS011;46115;44.484;11.314;2023-07-13T10:39:26;4.32;;;1.75;;
60257;SDS011;46115;44.484;11.314;2023-07-13T10:43:31;4.00;;;2.22;;
60257;SDS011;46115;44.484;11.314;2023-07-13T10:47:38;3.30;;;2.38;;
60257;SDS011;46115;44.484;11.314;2023-07-13T10:51:42;6.25;;;3.35;;
60257;SDS011;46115;44.484;11.314;2023-07-13T10:55:55;8.32;;;3.95;;
60257;SDS011;46115;44.484;11.314;2023-07-13T11:04:22;10.20;;;4.07;;
60257;SDS011;46115;44.484;11.314;2023-07-13T11:08:32;13.35;;;4.65;;
60257;SDS011;46115;44.484;11.314;2023-07-13T11:12:52;10.38;;;4.57;;
60257;SDS011;46115;44.484;11.314;2023-07-13T11:16:56;14.23;;;4.63;;
60257;SDS011;46115;44.484;11.314;2023-07-13T11:21:12;14.35;;;4.50;;
60257;SDS011;46115;44.484;11.314;2023-07-13T11:25:27;11.75;;;5.10;;
60257;SDS011;46115;44.484;11.314;2023-07-13T11:29:36;13.10;;;5.10;;
60257;SDS011;46115;44.484;11.314;2023-07-13T11:33:51;10.75;;;5.00;;
60257;SDS011;46115;44.484;11.314;2023-07-13T11:37:58;9.52;;;4.72;;
60257;SDS011;46115;44.484;11.314;2023-07-13T11:42:02;11.00;;;4.50;;
60257;SDS011;46115;44.484;11.314;2023-07-13T11:46:15;13.23;;;5.15;;
60257;SDS011;46115;44.484;11.314;2023-07-13T11:50:22;13.50;;;4.85;;
60257;SDS011;46115;44.484;11.314;2023-07-13T11:54:26;14.18;;;4.70;;
60257;SDS011;46115;44.484;11.314;2023-07-13T11:58:30;13.77;;;5.70;;
60257;SDS011;46115;44.484;11.314;2023-07-13T12:02:36;15.60;;;6.22;;
60257;SDS011;46115;44.484;11.314;2023-07-13T12:06:41;16.33;;;6.32;;
60257;SDS011;46115;44.484;11.314;2023-07-13T12:10:44;12.05;;;5.00;;
60257;SDS011;46115;44.484;11.314;2023-07-13T12:14:50;10.95;;;4.32;;
60257;SDS011;46115;44.484;11.314;2023-07-13T12:18:54;11.27;;;3.92;;
60257;SDS011;46115;44.484;11.314;2023-07-13T12:22:57;11.50;;;4.95;;
60257;SDS011;46115;44.484;11.314;2023-07-13T12:27:01;15.45;;;5.20;;
60257;SDS011;46115;44.484;11.314;2023-07-13T12:31:06;12.32;;;5.18;;
60257;SDS011;46115;44.484;11.314;2023-07-13T12:35:15;13.00;;;4.53;;
60257;SDS011;46115;44.484;11.314;2023-07-13T12:39:20;10.82;;;5.28;;
60257;SDS011;46115;44.484;11.314;2023-07-13T12:43:25;10.82;;;4.90;;
60257;SDS011;46115;44.484;11.314;2023-07-13T12:47:29;11.52;;;5.40;;
60257;SDS011;46115;44.484;11.314;2023-07-13T12:51:33;13.93;;;4.57;;
60257;SDS011;46115;44.484;11.314;2023-07-13T12:55:40;10.38;;;5.38;;
60257;SDS011;46115;44.484;11.314;2023-07-13T12:59:44;13.40;;;5.10;;
60257;SDS011;46115;44.484;11.314;2023-07-13T13:03:48;7.13;;;4.30;;
60257;SDS011;46115;44.484;11.314;2023-07-13T13:07:54;11.45;;;4.75;;
60257;SDS011;46115;44.484;11.314;2023-07-13T13:11:57;11.65;;;4.10;;
60257;SDS011;46115;44.484;11.314;2023-07-13T13:16:01;9.68;;;3.63;;
60257;SDS011;46115;44.484;11.314;2023-07-13T13:20:13;7.43;;;3.20;;
60257;SDS011;46115;44.484;11.314;2023-07-13T13:24:19;7.63;;;3.67;;
60257;SDS011;46115;44.484;11.314;2023-07-13T13:28:23;9.27;;;3.58;;
60257;SDS011;46115;44.484;11.314;2023-07-13T13:32:25;8.48;;;3.70;;
60257;SDS011;46115;44.484;11.314;2023-07-13T13:36:28;10.63;;;3.90;;
60257;SDS011;46115;44.484;11.314;2023-07-13T13:40:32;10.50;;;3.95;;
60257;SDS011;46115;44.484;11.314;2023-07-13T13:44:35;9.18;;;3.97;;
60257;SDS011;46115;44.484;11.314;2023-07-13T13:48:38;10.02;;;3.80;;
60257;SDS011;46115;44.484;11.314;2023-07-13T13:52:41;7.13;;;3.50;;
60257;SDS011;46115;44.484;11.314;2023-07-13T13:56:46;8.70;;;3.92;;
60257;SDS011;46115;44.484;11.314;2023-07-13T14:00:50;7.97;;;3.75;;
60257;SDS011;46115;44.484;11.314;2023-07-13T14:04:54;10.35;;;3.90;;
60257;SDS011;46115;44.484;11.314;2023-07-13T14:08:59;10.50;;;3.58;;
60257;SDS011;46115;44.484;11.314;2023-07-13T14:13:03;7.38;;;3.20;;
60257;SDS011;46115;44.484;11.314;2023-07-13T14:17:10;9.27;;;3.47;;
60257;SDS011;46115;44.484;11.314;2023-07-13T14:21:23;7.97;;;3.70;;
60257;SDS011;46115;44.484;11.314;2023-07-13T14:25:26;9.20;;;3.53;;
60257;SDS011;46115;44.484;11.314;2023-07-13T14:29:30;10.38;;;3.80;;
60257;SDS011;46115;44.484;11.314;2023-07-13T14:33:34;8.45;;;3.95;;
60257;SDS011;46115;44.484;11.314;2023-07-13T14:37:36;7.78;;;3.58;;
60257;SDS011;46115;44.484;11.314;2023-07-13T14:41:39;9.05;;;3.80;;
60257;SDS011;46115;44.484;11.314;2023-07-13T14:45:44;9.98;;;3.83;;
60257;SDS011;46115;44.484;11.314;2023-07-13T14:49:51;8.40;;;3.80;;
60257;SDS011;46115;44.484;11.314;2023-07-13T14:53:53;9.45;;;3.72;;
60257;SDS011;46115;44.484;11.314;2023-07-13T14:57:56;7.88;;;3.75;;
60257;SDS011;46115;44.484;11.314;2023-07-13T15:02:00;10.00;;;3.80;;
60257;SDS011;46115;44.484;11.314;2023-07-13T15:06:03;10.98;;;4.10;;
60257;SDS011;46115;44.484;11.314;2023-07-13T15:10:11;12.43;;;4.00;;
60257;SDS011;46115;44.484;11.314;2023-07-13T15:14:18;12.90;;;4.40;;
60257;SDS011;46115;44.484;11.314;2023-07-13T15:18:22;7.55;;;3.80;;
60257;SDS011;46115;44.484;11.314;2023-07-13T15:22:28;7.70;;;4.30;;
60257;SDS011;46115;44.484;11.314;2023-07-13T15:26:31;11.15;;;4.32;;
60257;SDS011;46115;44.484;11.314;2023-07-13T15:30:35;10.38;;;4.70;;
60257;SDS011;46115;44.484;11.314;2023-07-13T15:34:44;8.95;;;3.88;;
60257;SDS011;46115;44.484;11.314;2023-07-13T15:38:47;12.35;;;4.00;;
60257;SDS011;46115;44.484;11.314;2023-07-13T15:42:51;11.57;;;4.05;;
60257;SDS011;46115;44.484;11.314;2023-07-13T15:46:54;8.40;;;4.47;;
60257;SDS011;46115;44.484;11.314;2023-07-13T15:51:00;6.75;;;3.83;;
60257;SDS011;46115;44.484;11.314;2023-07-13T15:55:04;9.45;;;4.20;;
60257;SDS011;46115;44.484;11.314;2023-07-13T15:59:08;10.73;;;4.45;;
60257;SDS011;46115;44.484;11.314;2023-07-13T16:03:13;8.75;;;4.10;;
60257;SDS011;46115;44.484;11.314;2023-07-13T16:07:17;11.75;;;3.95;;
60257;SDS011;46115;44.484;11.314;2023-07-13T16:11:20;13.23;;;4.50;;
60257;SDS011;46115;44.484;11.314;2023-07-13T16:15:24;10.57;;;4.63;;
60257;SDS011;46115;44.484;11.314;2023-07-13T16:19:27;10.70;;;4.80;;
60257;SDS011;46115;44.484;11.314;2023-07-13T16:23:32;14.98;;;4.72;;
60257;SDS011;46115;44.484;11.314;2023-07-13T16:27:36;12.07;;;5.05;;
60257;SDS011;46115;44.484;11.314;2023-07-13T16:31:38;12.48;;;4.85;;
60257;SDS011;46115;44.484;11.314;2023-07-13T16:35:41;8.68;;;5.05;;
60257;SDS011;46115;44.484;11.314;2023-07-13T16:39:46;9.52;;;5.20;;
60257;SDS011;46115;44.484;11.314;2023-07-13T16:43:50;9.52;;;4.85;;
60257;SDS011;46115;44.484;11.314;2023-07-13T16:47:53;10.50;;;4.95;;
60257;SDS011;46115;44.484;11.314;2023-07-13T16:51:56;12.75;;;5.07;;
60257;SDS011;46115;44.484;11.314;2023-07-13T16:56:05;11.23;;;5.00;;
60257;SDS011;46115;44.484;11.314;2023-07-13T17:00:21;14.68;;;4.80;;
60257;SDS011;46115;44.484;11.314;2023-07-13T17:04:28;17.80;;;5.60;;
60257;SDS011;46115;44.484;11.314;2023-07-13T17:08:31;10.98;;;5.10;;
60257;SDS011;46115;44.484;11.314;2023-07-13T17:12:35;11.57;;;4.90;;
60257;SDS011;46115;44.484;11.314;2023-07-13T17:16:37;12.82;;;4.90;;
60257;SDS011;46115;44.484;11.314;2023-07-13T17:20:40;15.13;;;4.90;;
60257;SDS011;46115;44.484;11.314;2023-07-13T17:24:46;13.82;;;5.47;;
60257;SDS011;46115;44.484;11.314;2023-07-13T17:28:51;13.07;;;4.80;;
60257;SDS011;46115;44.484;11.314;2023-07-13T17:32:53;14.20;;;5.20;;
60257;SDS011;46115;44.484;11.314;2023-07-13T17:36:56;13.10;;;5.00;;
60257;SDS011;46115;44.484;11.314;2023-07-13T17:41:00;10.02;;;5.07;;
60257;SDS011;46115;44.484;11.314;2023-07-13T17:45:05;12.40;;;5.43;;
60257;SDS011;46115;44.484;11.314;2023-07-13T17:49:13;9.15;;;4.78;;
60257;SDS011;46115;44.484;11.314;2023-07-13T17:53:20;12.10;;;4.95;;
60257;SDS011;46115;44.484;11.314;2023-07-13T17:57:23;11.57;;;5.35;;
60257;SDS011;46115;44.484;11.314;2023-07-13T18:01:28;15.88;;;5.00;;
60257;SDS011;46115;44.484;11.314;2023-07-13T18:05:33;16.10;;;5.10;;
60257;SDS011;46115;44.484;11.314;2023-07-13T18:09:38;9.75;;;4.95;;
60257;SDS011;46115;44.484;11.314;2023-07-13T18:13:41;12.13;;;5.10;;
60257;SDS011;46115;44.484;11.314;2023-07-13T18:17:46;8.77;;;5.18;;
60257;SDS011;46115;44.484;11.314;2023-07-13T18:21:51;13.80;;;5.53;;
60257;SDS011;46115;44.484;11.314;2023-07-13T18:25:54;9.80;;;5.72;;
60257;SDS011;46115;44.484;11.314;2023-07-13T18:29:57;11.10;;;5.25;;
60257;SDS011;46115;44.484;11.314;2023-07-13T18:34:00;11.60;;;5.57;;
60257;SDS011;46115;44.484;11.314;2023-07-13T18:38:03;12.45;;;5.60;;
60257;SDS011;46115;44.484;11.314;2023-07-13T18:42:07;13.23;;;5.43;;
60257;SDS011;46115;44.484;11.314;2023-07-13T18:46:12;11.77;;;5.50;;
60257;SDS011;46115;44.484;11.314;2023-07-13T18:50:20;12.30;;;5.85;;
60257;SDS011;46115;44.484;11.314;2023-07-13T18:54:25;13.38;;;5.68;;
60257;SDS011;46115;44.484;11.314;2023-07-13T18:58:28;12.00;;;5.82;;
60257;SDS011;46115;44.484;11.314;2023-07-13T19:02:30;15.75;;;5.82;;
60257;SDS011;46115;44.484;11.314;2023-07-13T19:06:34;14.93;;;5.97;;
60257;SDS011;46115;44.484;11.314;2023-07-13T19:10:36;9.90;;;5.68;;
60257;SDS011;46115;44.484;11.314;2023-07-13T19:14:40;12.30;;;5.75;;
60257;SDS011;46115;44.484;11.314;2023-07-13T19:18:42;10.98;;;5.90;;
60257;SDS011;46115;44.484;11.314;2023-07-13T19:22:47;10.82;;;6.25;;
60257;SDS011;46115;44.484;11.314;2023-07-13T19:26:51;11.75;;;5.90;;
60257;SDS011;46115;44.484;11.314;2023-07-13T19:30:55;12.93;;;6.00;;
60257;SDS011;46115;44.484;11.314;2023-07-13T19:34:57;11.77;;;5.63;;
60257;SDS011;46115;44.484;11.314;2023-07-13T19:39:01;10.88;;;6.18;;
60257;SDS011;46115;44.484;11.314;2023-07-13T19:43:05;9.75;;;5.90;;
60257;SDS011;46115;44.484;11.314;2023-07-13T19:47:11;13.82;;;6.32;;
60257;SDS011;46115;44.484;11.314;2023-07-13T22:06:09;12.57;;;7.07;;
60257;SDS011;46115;44.484;11.314;2023-07-13T22:10:21;19.73;;;7.20;;
60257;SDS011;46115;44.484;11.314;2023-07-13T22:14:26;11.95;;;7.28;;
60257;SDS011;46115;44.484;11.314;2023-07-13T22:18:28;12.93;;;7.15;;
60257;SDS011;46115;44.484;11.314;2023-07-13T22:22:32;12.35;;;6.80;;
60257;SDS011;46115;44.484;11.314;2023-07-13T22:26:35;9.95;;;6.90;;
60257;SDS011;46115;44.484;11.314;2023-07-13T22:30:38;12.60;;;7.40;;
60257;SDS011;46115;44.484;11.314;2023-07-13T22:34:40;13.20;;;7.32;;
60257;SDS011;46115;44.484;11.314;2023-07-13T22:38:44;16.98;;;7.20;;
60257;SDS011;46115;44.484;11.314;2023-07-13T22:42:48;15.55;;;6.88;;
60257;SDS011;46115;44.484;11.314;2023-07-13T22:46:51;14.63;;;7.07;;
60257;SDS011;46115;44.484;11.314;2023-07-13T22:50:55;15.15;;;6.55;;
60257;SDS011;46115;44.484;11.314;2023-07-13T22:54:59;12.32;;;6.70;;
60257;SDS011;46115;44.484;11.314;2023-07-13T22:59:02;14.05;;;6.78;;
60257;SDS011;46115;44.484;11.314;2023-07-13T23:03:05;11.48;;;6.78;;
60257;SDS011;46115;44.484;11.314;2023-07-13T23:07:09;15.35;;;7.47;;
60257;SDS011;46115;44.484;11.314;2023-07-13T23:11:14;15.85;;;7.05;;
60257;SDS011;46115;44.484;11.314;2023-07-13T23:15:19;10.85;;;6.72;;
60257;SDS011;46115;44.484;11.314;2023-07-13T23:19:23;14.18;;;7.60;;
60257;SDS011;46115;44.484;11.314;2023-07-13T23:23:30;12.93;;;7.40;;
60257;SDS011;46115;44.484;11.314;2023-07-13T23:27:35;12.05;;;6.88;;
60257;SDS011;46115;44.484;11.314;2023-07-13T23:31:38;15.30;;;7.07;;
60257;SDS011;46115;44.484;11.314;2023-07-13T23:35:40;11.77;;;7.63;;
60257;SDS011;46115;44.484;11.314;2023-07-13T23:39:43;17.70;;;7.70;;
60257;SDS011;46115;44.484;11.314;2023-07-13T23:43:47;16.30;;;8.23;;
60257;SDS011;46115;44.484;11.314;2023-07-13T23:47:50;14.45;;;8.13;;
60257;SDS011;46115;44.484;11.314;2023-07-13T23:51:55;14.35;;;7.80;;
60257;SDS011;46115;44.484;11.314;2023-07-13T23:55:59;17.35;;;9.15;;
